createdAt,value
2022-09-20T00:00:51.300Z,1003.31
2022-09-20T00:01:51.288Z,1003.29
2022-09-20T00:02:51.329Z,1003.29
2022-09-20T00:03:51.327Z,1003.31
2022-09-20T00:04:51.379Z,1003.32
2022-09-20T00:05:51.363Z,1003.32
2022-09-20T00:06:51.380Z,1003.34
2022-09-20T00:07:51.399Z,1003.3
2022-09-20T00:08:51.415Z,1003.32
2022-09-20T00:09:51.438Z,1003.35
2022-09-20T00:10:51.458Z,1003.35
2022-09-20T00:11:51.478Z,1003.3
2022-09-20T00:12:51.490Z,1003.35
2022-09-20T00:13:51.513Z,1003.32
2022-09-20T00:14:51.529Z,1003.31
2022-09-20T00:15:51.549Z,1003.37
2022-09-20T00:16:51.640Z,1003.36
2022-09-20T00:17:51.936Z,1003.39
2022-09-20T00:18:51.631Z,1003.32
2022-09-20T00:19:51.624Z,1003.37
2022-09-20T00:20:51.639Z,1003.35
2022-09-20T00:21:51.659Z,1003.35
2022-09-20T00:22:51.677Z,1003.39
2022-09-20T00:23:51.693Z,1003.37
2022-09-20T00:24:51.713Z,1003.42
2022-09-20T00:25:51.731Z,1003.41
2022-09-20T00:26:51.749Z,1003.39
2022-09-20T00:27:51.770Z,1003.42
2022-09-20T00:28:51.809Z,1003.41
2022-09-20T00:29:51.805Z,1003.38
2022-09-20T00:30:51.826Z,1003.42
2022-09-20T00:31:51.941Z,1003.42
2022-09-20T00:32:51.862Z,1003.42
2022-09-20T00:33:51.881Z,1003.45
2022-09-20T00:34:51.924Z,1003.42
2022-09-20T00:35:51.919Z,1003.43
2022-09-20T00:36:51.939Z,1003.4
2022-09-20T00:37:51.956Z,1003.4
2022-09-20T00:38:51.971Z,1003.42
2022-09-20T00:39:51.994Z,1003.41
2022-09-20T00:40:52.010Z,1003.43
2022-09-20T00:41:52.030Z,1003.41
2022-09-20T00:42:52.047Z,1003.45
2022-09-20T00:43:52.079Z,1003.42
2022-09-20T00:44:52.090Z,1003.47
2022-09-20T00:45:52.122Z,1003.42
2022-09-20T00:46:52.123Z,1003.44
2022-09-20T00:47:52.139Z,1003.46
2022-09-20T00:48:52.155Z,1003.51
2022-09-20T00:49:52.171Z,1003.51
2022-09-20T00:50:52.219Z,1003.51
2022-09-20T00:51:52.216Z,1003.51
2022-09-20T00:52:52.229Z,1003.52
2022-09-20T00:53:52.251Z,1003.51
2022-09-20T00:54:52.268Z,1003.51
2022-09-20T00:55:52.289Z,1003.58
2022-09-20T00:56:52.307Z,1003.54
2022-09-20T00:57:52.324Z,1003.58
2022-09-20T00:58:52.391Z,1003.55
2022-09-20T00:59:52.357Z,1003.61
2022-09-20T01:00:52.410Z,1003.65
2022-09-20T01:01:52.464Z,1003.63
2022-09-20T01:02:52.416Z,1003.61
2022-09-20T01:03:52.435Z,1003.57
2022-09-20T01:04:52.454Z,1003.61
2022-09-20T01:05:52.474Z,1003.6
2022-09-20T01:06:52.517Z,1003.56
2022-09-20T01:07:52.509Z,1003.56
2022-09-20T01:08:52.526Z,1003.57
2022-09-20T01:09:52.547Z,1003.59
2022-09-20T01:10:52.563Z,1003.55
2022-09-20T01:11:52.585Z,1003.61
2022-09-20T01:12:52.599Z,1003.57
2022-09-20T01:13:52.667Z,1003.59
2022-09-20T01:14:52.633Z,1003.61
2022-09-20T01:15:52.655Z,1003.61
2022-09-20T01:16:52.717Z,1003.58
2022-09-20T01:17:53.098Z,1003.6
2022-09-20T01:18:52.710Z,1003.61
2022-09-20T01:19:52.734Z,1003.57
2022-09-20T01:20:52.751Z,1003.56
2022-09-20T01:21:52.766Z,1003.58
2022-09-20T01:22:52.813Z,1003.58
2022-09-20T01:23:52.835Z,1003.59
2022-09-20T01:24:52.824Z,1003.61
2022-09-20T01:25:52.842Z,1003.56
2022-09-20T01:26:52.860Z,1003.59
2022-09-20T01:27:52.878Z,1003.62
2022-09-20T01:28:52.985Z,1003.63
2022-09-20T01:29:52.913Z,1003.57
2022-09-20T01:30:52.936Z,1003.58
2022-09-20T01:31:53.028Z,1003.56
2022-09-20T01:32:52.971Z,1003.51
2022-09-20T01:33:52.987Z,1003.55
2022-09-20T01:34:53.010Z,1003.59
2022-09-20T01:35:53.025Z,1003.56
2022-09-20T01:36:53.043Z,1003.58
2022-09-20T01:37:53.062Z,1003.51
2022-09-20T01:38:53.109Z,1003.52
2022-09-20T01:39:53.101Z,1003.51
2022-09-20T01:40:53.124Z,1003.51
2022-09-20T01:41:53.134Z,1003.54
2022-09-20T01:42:53.158Z,1003.58
2022-09-20T01:43:53.233Z,1003.54
2022-09-20T01:44:53.205Z,1003.56
2022-09-20T01:45:53.257Z,1003.53
2022-09-20T01:46:53.230Z,1003.5
2022-09-20T01:47:53.246Z,1003.54
2022-09-20T01:48:53.270Z,1003.55
2022-09-20T01:49:53.284Z,1003.56
2022-09-20T01:50:53.305Z,1003.56
2022-09-20T01:51:53.324Z,1003.56
2022-09-20T01:52:53.345Z,1003.54
2022-09-20T01:53:53.359Z,1003.59
2022-09-20T01:54:53.406Z,1003.6
2022-09-20T01:55:53.395Z,1003.61
2022-09-20T01:56:53.417Z,1003.57
2022-09-20T01:57:53.437Z,1003.58
2022-09-20T01:59:07.112Z,1003.6
2022-09-20T01:59:53.471Z,1003.61
2022-09-20T02:00:53.554Z,1003.63
2022-09-20T02:01:53.598Z,1003.63
2022-09-20T02:02:53.525Z,1003.59
2022-09-20T02:03:53.547Z,1003.63
2022-09-20T02:04:53.566Z,1003.56
2022-09-20T02:05:53.579Z,1003.6
2022-09-20T02:06:53.601Z,1003.61
2022-09-20T02:07:53.609Z,1003.66
2022-09-20T02:08:53.638Z,1003.61
2022-09-20T02:09:53.651Z,1003.62
2022-09-20T02:10:53.700Z,1003.6
2022-09-20T02:11:53.687Z,1003.63
2022-09-20T02:12:53.709Z,1003.62
2022-09-20T02:13:53.731Z,1003.64
2022-09-20T02:14:53.747Z,1003.66
2022-09-20T02:15:53.767Z,1003.64
2022-09-20T02:16:53.824Z,1003.68
2022-09-20T02:17:54.206Z,1003.71
2022-09-20T02:18:53.819Z,1003.7
2022-09-20T02:19:53.842Z,1003.68
2022-09-20T02:20:53.859Z,1003.72
2022-09-20T02:21:53.874Z,1003.7
2022-09-20T02:22:53.896Z,1003.73
2022-09-20T02:23:53.913Z,1003.68
2022-09-20T02:24:53.927Z,1003.66
2022-09-20T02:25:53.951Z,1003.64
2022-09-20T02:26:53.989Z,1003.66
2022-09-20T02:27:53.986Z,1003.66
2022-09-20T02:28:54.003Z,1003.67
2022-09-20T02:29:54.022Z,1003.71
2022-09-20T02:30:54.046Z,1003.66
2022-09-20T02:31:54.106Z,1003.64
2022-09-20T02:32:54.075Z,1003.7
2022-09-20T02:33:54.097Z,1003.69
2022-09-20T02:34:54.111Z,1003.71
2022-09-20T02:35:54.132Z,1003.71
2022-09-20T02:36:54.148Z,1003.71
2022-09-20T02:37:54.171Z,1003.73
2022-09-20T02:38:54.189Z,1003.76
2022-09-20T02:39:54.207Z,1003.75
2022-09-20T02:40:54.223Z,1003.7
2022-09-20T02:41:54.247Z,1003.72
2022-09-20T02:42:54.282Z,1003.72
2022-09-20T02:43:54.278Z,1003.71
2022-09-20T02:44:54.295Z,1003.73
2022-09-20T02:45:54.350Z,1003.77
2022-09-20T02:46:54.332Z,1003.75
2022-09-20T02:47:54.353Z,1003.76
2022-09-20T02:48:54.370Z,1003.78
2022-09-20T02:49:54.402Z,1003.76
2022-09-20T02:50:54.404Z,1003.76
2022-09-20T02:51:54.447Z,1003.79
2022-09-20T02:52:54.443Z,1003.82
2022-09-20T02:53:54.470Z,1003.84
2022-09-20T02:54:54.482Z,1003.82
2022-09-20T02:55:54.500Z,1003.82
2022-09-20T02:56:54.515Z,1003.82
2022-09-20T02:57:54.535Z,1003.8
2022-09-20T02:58:54.580Z,1003.83
2022-09-20T02:59:54.576Z,1003.82
2022-09-20T03:00:54.616Z,1003.81
2022-09-20T03:01:54.649Z,1003.82
2022-09-20T03:02:54.627Z,1003.85
2022-09-20T03:03:54.646Z,1003.83
2022-09-20T03:04:54.663Z,1003.86
2022-09-20T03:05:54.680Z,1003.85
2022-09-20T03:06:54.702Z,1003.87
2022-09-20T03:07:54.719Z,1003.84
2022-09-20T03:08:54.795Z,1003.86
2022-09-20T03:09:54.753Z,1003.85
2022-09-20T03:10:54.773Z,1003.85
2022-09-20T03:11:54.791Z,1003.79
2022-09-20T03:12:54.809Z,1003.84
2022-09-20T03:13:54.825Z,1003.84
2022-09-20T03:14:54.879Z,1003.82
2022-09-20T03:15:54.864Z,1003.84
2022-09-20T03:16:54.939Z,1003.86
2022-09-20T03:17:55.253Z,1003.82
2022-09-20T03:18:54.921Z,1003.84
2022-09-20T03:19:54.936Z,1003.86
2022-09-20T03:20:54.955Z,1003.83
2022-09-20T03:21:54.971Z,1003.89
2022-09-20T03:22:54.994Z,1003.86
2022-09-20T03:23:55.067Z,1003.86
2022-09-20T03:24:55.029Z,1003.85
2022-09-20T03:25:55.048Z,1003.85
2022-09-20T03:26:55.067Z,1003.83
2022-09-20T03:27:55.082Z,1003.84
2022-09-20T03:28:55.103Z,1003.86
2022-09-20T03:29:55.118Z,1003.84
2022-09-20T03:30:55.166Z,1003.92
2022-09-20T03:31:55.213Z,1003.87
2022-09-20T03:32:55.174Z,1003.84
2022-09-20T03:33:55.193Z,1003.83
2022-09-20T03:34:55.212Z,1003.89
2022-09-20T03:35:55.227Z,1003.89
2022-09-20T03:36:55.247Z,1003.87
2022-09-20T03:37:55.265Z,1003.88
2022-09-20T03:38:55.335Z,1003.9
2022-09-20T03:39:55.303Z,1003.86
2022-09-20T03:40:55.468Z,1003.85
2022-09-20T03:41:55.337Z,1003.87
2022-09-20T03:42:55.356Z,1003.86
2022-09-20T03:43:55.374Z,1003.88
2022-09-20T03:44:55.395Z,1003.91
2022-09-20T03:45:55.473Z,1003.91
2022-09-20T03:46:55.455Z,1003.93
2022-09-20T03:47:55.444Z,1003.94
2022-09-20T03:48:55.468Z,1003.92
2022-09-20T03:49:55.478Z,1003.91
2022-09-20T03:50:55.501Z,1003.91
2022-09-20T03:51:55.516Z,1003.91
2022-09-20T03:52:55.538Z,1003.9
2022-09-20T03:53:55.582Z,1003.87
2022-09-20T03:54:55.574Z,1003.92
2022-09-20T03:55:55.592Z,1003.94
2022-09-20T03:56:55.607Z,1003.95
2022-09-20T03:57:55.631Z,1003.95
2022-09-20T03:58:55.646Z,1003.95
2022-09-20T03:59:55.662Z,1003.93
2022-09-20T04:00:55.769Z,1003.89
2022-09-20T04:01:55.748Z,1003.89
2022-09-20T04:02:55.743Z,1003.91
2022-09-20T04:03:55.737Z,1003.92
2022-09-20T04:04:55.755Z,1003.9
2022-09-20T04:05:55.775Z,1003.91
2022-09-20T04:06:55.790Z,1003.93
2022-09-20T04:07:55.807Z,1003.92
2022-09-20T04:08:55.840Z,1003.93
2022-09-20T04:09:55.845Z,1003.93
2022-09-20T04:10:55.859Z,1003.98
2022-09-20T04:11:55.880Z,1003.96
2022-09-20T04:12:55.897Z,1003.99
2022-09-20T04:13:55.914Z,1003.98
2022-09-20T04:14:55.934Z,1004
2022-09-20T04:15:55.951Z,1003.97
2022-09-20T04:16:56.039Z,1004.02
2022-09-20T04:17:56.188Z,1004
2022-09-20T04:18:56.028Z,1004.04
2022-09-20T04:19:56.024Z,1003.99
2022-09-20T04:20:56.039Z,1004.03
2022-09-20T04:21:56.059Z,1004.04
2022-09-20T04:22:56.074Z,1004.02
2022-09-20T04:23:56.172Z,1004.01
2022-09-20T04:24:56.110Z,1004.02
2022-09-20T04:25:56.131Z,1004.02
2022-09-20T04:26:56.149Z,1004.03
2022-09-20T04:27:56.166Z,1003.99
2022-09-20T04:28:56.184Z,1004.03
2022-09-20T04:29:56.204Z,1003.97
2022-09-20T04:30:56.220Z,1004.01
2022-09-20T04:31:56.385Z,1004
2022-09-20T04:32:56.253Z,1004
2022-09-20T04:33:56.274Z,1003.98
2022-09-20T04:34:56.314Z,1004
2022-09-20T04:35:56.308Z,1003.98
2022-09-20T04:36:56.328Z,1003.98
2022-09-20T04:37:56.344Z,1004.02
2022-09-20T04:38:56.360Z,1003.97
2022-09-20T04:39:56.426Z,1003.96
2022-09-20T04:40:56.398Z,1003.99
2022-09-20T04:41:56.417Z,1003.99
2022-09-20T04:42:56.433Z,1004.01
2022-09-20T04:43:56.453Z,1004.02
2022-09-20T04:44:56.471Z,1004.02
2022-09-20T04:45:56.532Z,1004.04
2022-09-20T04:46:56.506Z,1004.05
2022-09-20T04:47:56.535Z,1004.07
2022-09-20T04:48:56.542Z,1004.1
2022-09-20T04:49:56.558Z,1004.08
2022-09-20T04:50:56.602Z,1004.11
2022-09-20T04:51:56.596Z,1004.05
2022-09-20T04:52:56.616Z,1004.06
2022-09-20T04:53:56.630Z,1004.12
2022-09-20T04:54:56.651Z,1004.11
2022-09-20T04:55:56.663Z,1004.07
2022-09-20T04:56:56.686Z,1004.11
2022-09-20T04:57:56.700Z,1004.12
2022-09-20T04:58:56.721Z,1004.16
2022-09-20T04:59:56.735Z,1004.16
2022-09-20T05:00:56.789Z,1004.16
2022-09-20T05:01:56.849Z,1004.16
2022-09-20T05:02:56.793Z,1004.14
2022-09-20T05:03:56.808Z,1004.18
2022-09-20T05:04:56.838Z,1004.18
2022-09-20T05:05:56.889Z,1004.19
2022-09-20T05:06:56.890Z,1004.21
2022-09-20T05:07:56.881Z,1004.18
2022-09-20T05:08:58.958Z,1004.21
2022-09-20T05:09:56.916Z,1004.21
2022-09-20T05:10:56.950Z,1004.22
2022-09-20T05:11:56.954Z,1004.26
2022-09-20T05:12:56.973Z,1004.25
2022-09-20T05:13:56.986Z,1004.24
2022-09-20T05:14:57.008Z,1004.25
2022-09-20T05:15:57.023Z,1004.28
2022-09-20T05:16:57.143Z,1004.28
2022-09-20T05:17:57.064Z,1004.29
2022-09-20T05:18:57.081Z,1004.34
2022-09-20T05:19:57.094Z,1004.32
2022-09-20T05:20:57.113Z,1004.32
2022-09-20T05:21:57.131Z,1004.35
2022-09-20T05:22:57.175Z,1004.33
2022-09-20T05:23:57.179Z,1004.35
2022-09-20T05:24:57.189Z,1004.35
2022-09-20T05:25:57.202Z,1004.35
2022-09-20T05:26:57.221Z,1004.36
2022-09-20T05:27:57.242Z,1004.37
2022-09-20T05:28:57.258Z,1004.38
2022-09-20T05:29:57.279Z,1004.34
2022-09-20T05:30:57.292Z,1004.33
2022-09-20T05:31:57.367Z,1004.37
2022-09-20T05:32:57.334Z,1004.4
2022-09-20T05:33:57.346Z,1004.38
2022-09-20T05:34:57.369Z,1004.39
2022-09-20T05:35:57.386Z,1004.38
2022-09-20T05:36:57.399Z,1004.37
2022-09-20T05:37:57.421Z,1004.39
2022-09-20T05:38:58.069Z,1004.37
2022-09-20T05:39:57.491Z,1004.41
2022-09-20T05:40:57.473Z,1004.4
2022-09-20T05:41:57.493Z,1004.38
2022-09-20T05:42:57.506Z,1004.43
2022-09-20T05:43:57.531Z,1004.46
2022-09-20T05:44:57.544Z,1004.51
2022-09-20T05:45:57.621Z,1004.51
2022-09-20T05:46:57.582Z,1004.54
2022-09-20T05:47:57.602Z,1004.53
2022-09-20T05:48:57.614Z,1004.54
2022-09-20T05:49:57.634Z,1004.53
2022-09-20T05:50:59.509Z,1004.59
2022-09-20T05:51:57.674Z,1004.59
2022-09-20T05:52:57.688Z,1004.61
2022-09-20T05:53:57.708Z,1004.61
2022-09-20T05:54:57.768Z,1004.61
2022-09-20T05:55:57.743Z,1004.64
2022-09-20T05:56:57.760Z,1004.6
2022-09-20T05:57:57.780Z,1004.62
2022-09-20T05:58:57.803Z,1004.62
2022-09-20T05:59:57.814Z,1004.64
2022-09-20T06:00:57.942Z,1004.68
2022-09-20T06:01:57.901Z,1004.69
2022-09-20T06:02:58.269Z,1004.65
2022-09-20T06:03:57.888Z,1004.68
2022-09-20T06:04:57.906Z,1004.72
2022-09-20T06:05:57.923Z,1004.73
2022-09-20T06:06:57.938Z,1004.72
2022-09-20T06:07:57.963Z,1004.73
2022-09-20T06:08:57.976Z,1004.75
2022-09-20T06:09:58.000Z,1004.76
2022-09-20T06:10:58.034Z,1004.76
2022-09-20T06:11:58.030Z,1004.78
2022-09-20T06:12:58.051Z,1004.78
2022-09-20T06:13:58.066Z,1004.81
2022-09-20T06:14:58.084Z,1004.84
2022-09-20T06:15:58.104Z,1004.82
2022-09-20T06:16:58.120Z,1004.83
2022-09-20T06:17:58.139Z,1004.85
2022-09-20T06:18:58.166Z,1004.88
2022-09-20T06:19:58.178Z,1004.84
2022-09-20T06:20:58.192Z,1004.88
2022-09-20T06:22:01.986Z,1004.86
2022-09-20T06:22:58.230Z,1004.86
2022-09-20T06:23:58.248Z,1004.83
2022-09-20T06:24:58.265Z,1004.86
2022-09-20T06:25:58.294Z,1004.89
2022-09-20T06:26:58.334Z,1004.88
2022-09-20T06:27:58.320Z,1004.87
2022-09-20T06:28:58.670Z,1004.92
2022-09-20T06:29:58.358Z,1004.93
2022-09-20T06:30:58.416Z,1004.95
2022-09-20T06:31:58.392Z,1004.95
2022-09-20T06:32:58.411Z,1004.99
2022-09-20T06:33:58.430Z,1004.98
2022-09-20T06:34:58.448Z,1004.97
2022-09-20T06:35:59.283Z,1004.99
2022-09-20T06:36:58.485Z,1005.01
2022-09-20T06:37:58.499Z,1005.01
2022-09-20T06:38:58.520Z,1005.02
2022-09-20T06:39:58.580Z,1005.03
2022-09-20T06:40:58.554Z,1005.03
2022-09-20T06:41:58.572Z,1005.05
2022-09-20T06:42:58.617Z,1004.99
2022-09-20T06:43:58.606Z,1005.02
2022-09-20T06:44:58.629Z,1005.02
2022-09-20T06:45:58.753Z,1004.99
2022-09-20T06:46:58.664Z,1005.01
2022-09-20T06:47:58.678Z,1005.01
2022-09-20T06:48:58.700Z,1005.02
2022-09-20T06:49:58.718Z,1005.05
2022-09-20T06:50:58.735Z,1005.07
2022-09-20T06:51:58.752Z,1005.09
2022-09-20T06:52:58.776Z,1005.13
2022-09-20T06:53:58.790Z,1005.12
2022-09-20T06:54:58.810Z,1005.1
2022-09-20T06:55:58.826Z,1005.12
2022-09-20T06:56:58.848Z,1005.13
2022-09-20T06:57:58.862Z,1005.09
2022-09-20T06:58:58.907Z,1005.14
2022-09-20T06:59:58.898Z,1005.09
2022-09-20T07:00:58.936Z,1005.12
2022-09-20T07:01:58.957Z,1005.13
2022-09-20T07:02:59.160Z,1005.17
2022-09-20T07:03:58.970Z,1005.14
2022-09-20T07:04:58.992Z,1005.13
2022-09-20T07:05:59.008Z,1005.14
2022-09-20T07:06:59.024Z,1005.13
2022-09-20T07:07:59.042Z,1005.08
2022-09-20T07:08:59.062Z,1005.1
2022-09-20T07:09:59.079Z,1005.12
2022-09-20T07:10:59.099Z,1005.1
2022-09-20T07:11:59.121Z,1005.12
2022-09-20T07:12:59.133Z,1005.12
2022-09-20T07:13:59.152Z,1005.09
2022-09-20T07:14:59.203Z,1005.12
2022-09-20T07:15:59.204Z,1005.14
2022-09-20T07:16:59.209Z,1005.17
2022-09-20T07:17:59.226Z,1005.17
2022-09-20T07:18:59.244Z,1005.19
2022-09-20T07:19:59.261Z,1005.24
2022-09-20T07:20:59.284Z,1005.24
2022-09-20T07:21:59.300Z,1005.22
2022-09-20T07:22:59.318Z,1005.18
2022-09-20T07:23:59.336Z,1005.24
2022-09-20T07:24:59.355Z,1005.24
2022-09-20T07:25:59.372Z,1005.24
2022-09-20T07:26:59.390Z,1005.22
2022-09-20T07:27:59.410Z,1005.27
2022-09-20T07:28:59.426Z,1005.3
2022-09-20T07:29:59.447Z,1005.28
2022-09-20T07:30:59.487Z,1005.3
2022-09-20T07:31:59.536Z,1005.29
2022-09-20T07:32:59.501Z,1005.32
2022-09-20T07:33:59.521Z,1005.36
2022-09-20T07:34:59.538Z,1005.37
2022-09-20T07:35:59.557Z,1005.35
2022-09-20T07:36:59.574Z,1005.39
2022-09-20T07:37:59.593Z,1005.35
2022-09-20T07:38:59.610Z,1005.38
2022-09-20T07:39:59.662Z,1005.4
2022-09-20T07:40:59.646Z,1005.4
2022-09-20T07:41:59.666Z,1005.43
2022-09-20T07:42:59.684Z,1005.39
2022-09-20T07:43:59.701Z,1005.47
2022-09-20T07:44:59.721Z,1005.47
2022-09-20T07:45:59.766Z,1005.47
2022-09-20T07:46:59.796Z,1005.5
2022-09-20T07:47:59.776Z,1005.5
2022-09-20T07:48:59.795Z,1005.5
2022-09-20T07:49:59.813Z,1005.5
2022-09-20T07:50:59.829Z,1005.5
2022-09-20T07:51:59.851Z,1005.49
2022-09-20T07:52:59.865Z,1005.53
2022-09-20T07:53:59.886Z,1005.54
2022-09-20T07:54:59.906Z,1005.51
2022-09-20T07:55:59.923Z,1005.58
2022-09-20T07:56:59.942Z,1005.57
2022-09-20T07:57:59.958Z,1005.62
2022-09-20T07:58:59.979Z,1005.6
2022-09-20T07:59:59.998Z,1005.64
2022-09-20T08:01:00.044Z,1005.66
2022-09-20T08:02:00.091Z,1005.64
2022-09-20T08:03:00.090Z,1005.65
2022-09-20T08:04:00.076Z,1005.67
2022-09-20T08:05:00.089Z,1005.65
2022-09-20T08:06:00.106Z,1005.65
2022-09-20T08:07:00.130Z,1005.7
2022-09-20T08:08:00.145Z,1005.67
2022-09-20T08:09:00.161Z,1005.7
2022-09-20T08:10:00.197Z,1005.72
2022-09-20T08:11:00.201Z,1005.72
2022-09-20T08:14:05.065Z,1005.77
2022-09-20T08:14:17.176Z,1005.8
2022-09-20T08:15:17.104Z,1005.83
2022-09-20T08:16:17.145Z,1005.85
2022-09-20T08:17:17.138Z,1005.86
2022-09-20T08:18:17.185Z,1005.81
2022-09-20T08:19:17.182Z,1005.8
2022-09-20T08:20:17.199Z,1005.82
2022-09-20T08:21:17.213Z,1005.79
2022-09-20T08:22:17.234Z,1005.78
2022-09-20T08:23:23.614Z,1005.81
2022-09-20T08:24:17.272Z,1005.81
2022-09-20T08:25:17.291Z,1005.82
2022-09-20T08:26:17.312Z,1005.83
2022-09-20T08:27:17.326Z,1005.87
2022-09-20T08:28:17.349Z,1005.81
2022-09-20T08:29:17.364Z,1005.82
2022-09-20T08:30:17.385Z,1005.82
2022-09-20T08:31:17.478Z,1005.81
2022-09-20T08:32:17.420Z,1005.79
2022-09-20T08:33:17.437Z,1005.79
2022-09-20T08:34:17.484Z,1005.78
2022-09-20T08:35:17.478Z,1005.81
2022-09-20T08:36:17.496Z,1005.8
2022-09-20T08:37:17.510Z,1005.78
2022-09-20T08:40:01.484Z,1005.84
2022-09-20T08:41:01.435Z,1005.76
2022-09-20T08:42:01.453Z,1005.81
2022-09-20T08:43:05.442Z,1005.76
2022-09-20T08:44:01.486Z,1005.8
2022-09-20T08:45:01.509Z,1005.78
2022-09-20T08:46:05.355Z,1005.8
2022-09-20T08:47:01.549Z,1005.81
2022-09-20T08:48:01.567Z,1005.82
2022-09-20T08:49:01.588Z,1005.77
2022-09-20T08:50:08.898Z,1005.78
2022-09-20T08:51:05.546Z,1005.8
2022-09-20T08:52:01.641Z,1005.76
2022-09-20T08:53:01.662Z,1005.75
2022-09-20T08:54:01.673Z,1005.79
2022-09-20T08:55:07.205Z,1005.79
2022-09-20T08:56:01.714Z,1005.81
2022-09-20T08:57:01.730Z,1005.79
2022-09-20T08:58:04.984Z,1005.78
2022-09-20T08:59:01.772Z,1005.79
2022-09-20T09:00:01.787Z,1005.8
2022-09-20T09:01:01.895Z,1005.83
2022-09-20T09:02:01.895Z,1005.83
2022-09-20T09:03:01.844Z,1005.86
2022-09-20T09:04:01.863Z,1005.86
2022-09-20T09:05:01.882Z,1005.86
2022-09-20T09:06:01.956Z,1005.81
2022-09-20T09:07:01.919Z,1005.82
2022-09-20T09:08:04.476Z,1005.85
2022-09-20T09:09:01.959Z,1005.8
2022-09-20T09:10:01.980Z,1005.85
2022-09-20T09:11:01.996Z,1005.86
2022-09-20T09:12:02.016Z,1005.86
2022-09-20T09:13:02.033Z,1005.86
2022-09-20T09:14:02.055Z,1005.87
2022-09-20T09:15:02.073Z,1005.87
2022-09-20T09:16:02.097Z,1005.84
2022-09-20T09:17:02.159Z,1005.83
2022-09-20T09:18:02.130Z,1005.83
2022-09-20T09:19:02.151Z,1005.83
2022-09-20T09:20:02.168Z,1005.85
2022-09-20T09:21:02.186Z,1005.85
2022-09-20T09:22:02.231Z,1005.83
2022-09-20T09:23:02.223Z,1005.86
2022-09-20T09:24:02.244Z,1005.82
2022-09-20T09:25:02.260Z,1005.83
2022-09-20T09:26:02.281Z,1005.85
2022-09-20T09:27:02.299Z,1005.84
2022-09-20T09:28:02.320Z,1005.84
2022-09-20T09:29:02.334Z,1005.91
2022-09-20T09:30:02.349Z,1005.87
2022-09-20T09:31:02.372Z,1005.9
2022-09-20T09:32:02.437Z,1005.87
2022-09-20T09:33:02.410Z,1005.9
2022-09-20T09:34:02.435Z,1005.87
2022-09-20T09:35:02.449Z,1005.85
2022-09-20T09:36:02.471Z,1005.88
2022-09-20T09:37:02.488Z,1005.88
2022-09-20T09:38:02.540Z,1005.94
2022-09-20T09:39:02.523Z,1005.92
2022-09-20T09:40:02.584Z,1005.92
2022-09-20T09:41:02.565Z,1005.91
2022-09-20T09:42:02.585Z,1005.9
2022-09-20T09:43:02.604Z,1005.9
2022-09-20T09:44:02.615Z,1005.91
2022-09-20T09:45:02.647Z,1005.91
2022-09-20T09:46:02.703Z,1005.93
2022-09-20T09:47:02.690Z,1005.92
2022-09-20T09:48:02.692Z,1005.89
2022-09-20T09:49:02.716Z,1005.91
2022-09-20T09:50:07.519Z,1005.88
2022-09-20T09:51:02.750Z,1005.88
2022-09-20T09:52:02.771Z,1005.85
2022-09-20T09:53:02.938Z,1005.86
2022-09-20T09:54:02.981Z,1005.82
2022-09-20T09:55:05.254Z,1005.84
2022-09-20T09:56:02.890Z,1005.87
2022-09-20T09:57:02.967Z,1005.9
2022-09-20T09:58:02.882Z,1005.89
2022-09-20T09:59:02.957Z,1005.92
2022-09-20T10:00:06.040Z,1005.95
2022-09-20T10:01:02.985Z,1005.95
2022-09-20T10:02:02.992Z,1005.91
2022-09-20T10:03:02.988Z,1005.89
2022-09-20T10:04:02.994Z,1005.94
2022-09-20T10:05:03.212Z,1005.97
2022-09-20T10:06:03.034Z,1005.9
2022-09-20T10:07:03.053Z,1005.9
2022-09-20T10:08:03.070Z,1005.89
2022-09-20T10:09:03.092Z,1005.9
2022-09-20T10:10:03.135Z,1005.95
2022-09-20T10:11:03.134Z,1005.91
2022-09-20T10:12:03.147Z,1005.9
2022-09-20T10:13:03.168Z,1005.94
2022-09-20T10:14:03.187Z,1005.91
2022-09-20T10:15:03.217Z,1005.91
2022-09-20T10:16:03.226Z,1005.93
2022-09-20T10:17:03.246Z,1005.91
2022-09-20T10:18:03.264Z,1005.93
2022-09-20T10:19:03.287Z,1005.93
2022-09-20T10:20:03.304Z,1005.88
2022-09-20T10:21:03.320Z,1005.85
2022-09-20T10:22:03.340Z,1005.84
2022-09-20T10:24:10.252Z,1005.83
2022-09-20T10:25:10.331Z,1005.83
2022-09-20T10:26:10.293Z,1005.83
2022-09-20T10:27:10.310Z,1005.85
2022-09-20T10:28:10.328Z,1005.84
2022-09-20T10:29:10.346Z,1005.82
2022-09-20T10:30:10.370Z,1005.82
2022-09-20T10:31:10.445Z,1005.81
2022-09-20T10:32:12.859Z,1005.78
2022-09-20T10:33:10.424Z,1005.81
2022-09-20T10:34:10.443Z,1005.77
2022-09-20T10:35:10.461Z,1005.82
2022-09-20T10:36:10.480Z,1005.79
2022-09-20T10:37:10.504Z,1005.76
2022-09-20T10:38:10.519Z,1005.74
2022-09-20T10:39:10.543Z,1005.74
2022-09-20T10:40:10.592Z,1005.76
2022-09-20T10:41:10.606Z,1005.76
2022-09-20T10:42:10.594Z,1005.71
2022-09-20T10:43:10.615Z,1005.73
2022-09-20T10:44:10.633Z,1005.71
2022-09-20T10:45:10.656Z,1005.74
2022-09-20T10:46:34.669Z,1005.73
2022-09-20T10:47:34.654Z,1005.71
2022-09-20T10:48:34.662Z,1005.67
2022-09-20T10:49:34.681Z,1005.66
2022-09-20T10:50:34.697Z,1005.69
2022-09-20T10:51:34.717Z,1005.68
2022-09-20T10:52:34.736Z,1005.65
2022-09-20T10:53:34.756Z,1005.62
2022-09-20T10:54:34.777Z,1005.65
2022-09-20T10:55:34.793Z,1005.67
2022-09-20T10:56:34.838Z,1005.63
2022-09-20T10:57:34.831Z,1005.65
2022-09-20T10:58:34.852Z,1005.59
2022-09-20T10:59:34.868Z,1005.65
2022-09-20T11:00:34.890Z,1005.64
2022-09-20T11:01:34.964Z,1005.66
2022-09-20T11:02:34.982Z,1005.64
2022-09-20T11:03:34.946Z,1005.61
2022-09-20T11:04:34.967Z,1005.6
2022-09-20T11:05:34.985Z,1005.68
2022-09-20T11:06:35.007Z,1005.63
2022-09-20T11:07:35.025Z,1005.58
2022-09-20T11:08:35.044Z,1005.58
2022-09-20T11:09:35.059Z,1005.55
2022-09-20T11:10:35.136Z,1005.56
2022-09-20T11:11:35.099Z,1005.55
2022-09-20T11:12:35.142Z,1005.53
2022-09-20T11:13:35.242Z,1005.55
2022-09-20T11:14:35.158Z,1005.58
2022-09-20T11:15:35.174Z,1005.57
2022-09-20T11:16:35.233Z,1005.57
2022-09-20T11:17:35.214Z,1005.61
2022-09-20T11:18:35.225Z,1005.56
2022-09-20T11:19:35.253Z,1005.56
2022-09-20T11:20:35.271Z,1005.59
2022-09-20T11:21:35.288Z,1005.6
2022-09-20T11:22:35.310Z,1005.61
2022-09-20T11:23:35.327Z,1005.6
2022-09-20T11:24:35.352Z,1005.62
2022-09-20T11:25:35.366Z,1005.61
2022-09-20T11:26:35.388Z,1005.62
2022-09-20T11:27:35.404Z,1005.63
2022-09-20T11:28:35.449Z,1005.61
2022-09-20T11:29:35.441Z,1005.59
2022-09-20T11:30:35.465Z,1005.62
2022-09-20T11:31:35.545Z,1005.61
2022-09-20T11:32:35.505Z,1005.58
2022-09-20T11:33:39.304Z,1005.59
2022-09-20T11:34:35.542Z,1005.59
2022-09-20T11:35:35.565Z,1005.59
2022-09-20T11:36:35.583Z,1005.58
2022-09-20T11:37:35.600Z,1005.59
2022-09-20T11:38:35.615Z,1005.62
2022-09-20T11:39:35.646Z,1005.61
2022-09-20T11:40:35.753Z,1005.59
2022-09-20T11:41:35.676Z,1005.56
2022-09-20T11:42:35.693Z,1005.65
2022-09-20T11:43:35.716Z,1005.65
2022-09-20T11:44:35.759Z,1005.7
2022-09-20T11:45:35.786Z,1005.69
2022-09-20T11:46:35.773Z,1005.68
2022-09-20T11:47:54.774Z,1005.69
2022-09-20T11:48:35.816Z,1005.71
2022-09-20T11:49:35.832Z,1005.71
2022-09-20T11:50:35.853Z,1005.77
2022-09-20T11:51:35.871Z,1005.81
2022-09-20T11:52:35.892Z,1005.84
2022-09-20T11:53:36.908Z,1005.84
2022-09-20T11:54:35.930Z,1005.83
2022-09-20T11:55:35.950Z,1005.88
2022-09-20T11:56:35.970Z,1005.84
2022-09-20T11:57:35.991Z,1005.87
2022-09-20T11:58:36.009Z,1005.88
2022-09-20T11:59:36.029Z,1005.84
2022-09-20T12:00:36.073Z,1005.86
2022-09-20T12:01:36.072Z,1005.85
2022-09-20T12:02:36.253Z,1005.91
2022-09-20T12:03:36.198Z,1005.97
2022-09-20T12:04:36.543Z,1005.91
2022-09-20T12:05:36.549Z,1005.96
2022-09-20T12:06:36.165Z,1005.99
2022-09-20T12:07:36.188Z,1006.05
2022-09-20T12:08:36.204Z,1006.07
2022-09-20T12:09:36.221Z,1006.09
2022-09-20T12:10:36.242Z,1006.17
2022-09-20T12:11:36.268Z,1006.22
2022-09-20T12:12:36.282Z,1006.21
2022-09-20T12:13:36.300Z,1006.23